createdAt,value
2023-01-29T00:02:12.374Z,5.30
2023-01-29T00:04:39.311Z,4.83
2023-01-29T00:07:06.435Z,4.80
2023-01-29T00:09:33.421Z,5.37
2023-01-29T00:12:00.416Z,5.27
2023-01-29T00:14:27.645Z,5.70
2023-01-29T00:16:55.092Z,5.50
2023-01-29T00:19:22.244Z,5.80
2023-01-29T00:21:49.217Z,5.70
2023-01-29T00:24:16.389Z,5.17
2023-01-29T00:26:43.447Z,5.33
2023-01-29T00:29:10.849Z,8.37
2023-01-29T00:31:38.079Z,9.53
2023-01-29T00:34:05.124Z,6.50
2023-01-29T00:36:32.072Z,6.43
2023-01-29T00:39:02.701Z,6.87
2023-01-29T00:41:51.142Z,6.50
2023-01-29T00:44:37.313Z,6.97
2023-01-29T00:47:05.437Z,12.40
2023-01-29T00:49:32.475Z,15.83
2023-01-29T00:52:17.741Z,10.07
2023-01-29T00:54:44.726Z,6.97
2023-01-29T00:57:11.716Z,11.00
2023-01-29T00:59:38.732Z,8.60
2023-01-29T01:02:24.392Z,8.33
2023-01-29T01:04:51.480Z,10.67
2023-01-29T01:07:18.517Z,8.20
2023-01-29T01:10:11.832Z,10.17
2023-01-29T01:12:38.896Z,10.80
2023-01-29T01:15:06.395Z,10.43
2023-01-29T01:17:33.370Z,13.10
2023-01-29T01:20:00.317Z,8.90
2023-01-29T01:22:27.821Z,8.80
2023-01-29T01:24:54.729Z,10.57
2023-01-29T01:27:21.710Z,8.97
2023-01-29T01:29:48.708Z,9.30
2023-01-29T01:32:16.064Z,8.17
2023-01-29T01:34:45.335Z,8.67
2023-01-29T01:37:12.336Z,11.63
2023-01-29T01:39:39.254Z,9.27
2023-01-29T01:42:12.685Z,10.10
2023-01-29T01:45:01.198Z,8.20
2023-01-29T01:47:44.354Z,12.23
2023-01-29T01:50:35.572Z,11.03
2023-01-29T01:53:19.137Z,13.60
2023-01-29T01:55:57.839Z,10.40
2023-01-29T01:58:33.884Z,9.80
2023-01-29T02:01:02.467Z,14.17
2023-01-29T02:03:55.004Z,10.57
2023-01-29T02:06:40.500Z,11.53
2023-01-29T02:09:38.820Z,9.73
2023-01-29T02:12:12.204Z,11.23
2023-01-29T02:14:41.458Z,9.60
2023-01-29T02:17:12.196Z,9.57
2023-01-29T02:20:19.881Z,10.30
2023-01-29T02:23:14.609Z,11.40
2023-01-29T02:26:27.279Z,9.70
2023-01-29T02:29:26.997Z,10.60
2023-01-29T02:32:21.559Z,9.97
2023-01-29T02:35:37.830Z,10.43
2023-01-29T02:38:38.666Z,11.10
2023-01-29T02:41:24.061Z,10.87
2023-01-29T02:44:10.216Z,10.63
2023-01-29T02:47:16.655Z,10.73
2023-01-29T02:49:49.401Z,10.00
2023-01-29T02:52:31.590Z,13.03
2023-01-29T02:55:13.880Z,9.07
2023-01-29T02:57:44.903Z,10.77
2023-01-29T03:00:39.405Z,10.70
2023-01-29T03:03:13.021Z,10.73
2023-01-29T03:06:06.349Z,14.27
2023-01-29T03:08:50.161Z,16.53
2023-01-29T03:11:18.258Z,11.30
2023-01-29T03:13:57.431Z,13.10
2023-01-29T03:16:38.272Z,12.33
2023-01-29T03:19:34.498Z,18.43
2023-01-29T03:22:04.776Z,11.77
2023-01-29T03:24:57.737Z,10.63
2023-01-29T03:27:50.460Z,13.07
2023-01-29T03:30:38.746Z,15.37
2023-01-29T03:33:10.382Z,10.70
2023-01-29T03:35:56.442Z,11.43
2023-01-29T03:38:29.542Z,13.10
2023-01-29T03:41:06.806Z,13.27
2023-01-29T03:44:01.707Z,12.33
2023-01-29T03:47:09.322Z,11.60
2023-01-29T03:50:02.414Z,14.37
2023-01-29T03:52:50.842Z,11.67
2023-01-29T03:55:35.472Z,13.23
2023-01-29T03:58:23.918Z,11.83
2023-01-29T04:01:11.214Z,12.63
2023-01-29T04:03:42.471Z,13.83
2023-01-29T04:06:13.675Z,11.20
2023-01-29T04:09:03.618Z,12.03
2023-01-29T04:11:33.771Z,10.50
2023-01-29T04:14:00.887Z,13.47
2023-01-29T04:16:35.083Z,15.40
2023-01-29T04:19:02.307Z,12.50
2023-01-29T04:21:32.882Z,15.57
2023-01-29T04:23:59.936Z,15.33
2023-01-29T04:26:42.860Z,12.63
2023-01-29T04:29:38.805Z,13.97
2023-01-29T04:32:28.877Z,12.37
2023-01-29T04:35:08.868Z,15.70
2023-01-29T04:37:50.902Z,22.20
2023-01-29T04:40:33.888Z,13.80
2023-01-29T04:43:41.489Z,14.93
2023-01-29T04:46:46.586Z,18.33
2023-01-29T04:49:45.182Z,11.87
2023-01-29T04:52:45.490Z,15.13
2023-01-29T04:55:33.417Z,16.57
2023-01-29T04:58:12.575Z,12.70
2023-01-29T05:00:45.569Z,15.97
2023-01-29T05:03:15.580Z,14.13
2023-01-29T05:05:46.927Z,19.47
2023-01-29T05:08:19.305Z,12.07
2023-01-29T05:10:48.787Z,20.23
2023-01-29T05:13:16.341Z,12.43
2023-01-29T05:16:13.189Z,16.80
2023-01-29T05:18:41.080Z,15.63
2023-01-29T05:21:09.380Z,22.13
2023-01-29T05:23:36.791Z,17.97
2023-01-29T05:26:04.802Z,17.50
2023-01-29T05:28:31.848Z,20.27
2023-01-29T05:30:59.021Z,14.30
2023-01-29T05:33:29.448Z,23.70
2023-01-29T05:35:59.375Z,15.77
2023-01-29T05:38:26.451Z,18.03
2023-01-29T05:40:54.088Z,19.33
2023-01-29T05:43:24.807Z,19.60
2023-01-29T05:46:00.274Z,18.33
2023-01-29T05:48:29.163Z,16.67
2023-01-29T05:51:05.929Z,17.23
2023-01-29T05:53:34.040Z,20.47
2023-01-29T05:56:05.533Z,16.20
2023-01-29T05:58:33.967Z,22.70
2023-01-29T06:01:22.464Z,21.93
2023-01-29T06:03:49.507Z,24.27
2023-01-29T06:06:17.053Z,18.73
2023-01-29T06:08:44.303Z,17.93
2023-01-29T06:11:14.420Z,17.37
2023-01-29T06:13:41.590Z,18.63
2023-01-29T06:16:10.436Z,23.80
2023-01-29T06:18:39.153Z,23.30
2023-01-29T06:21:09.419Z,19.37
2023-01-29T06:23:36.917Z,19.13
2023-01-29T06:26:16.830Z,19.67
2023-01-29T06:28:45.999Z,16.37
2023-01-29T06:31:32.995Z,20.37
2023-01-29T06:33:59.978Z,24.03
2023-01-29T06:36:27.036Z,19.27
2023-01-29T06:38:53.981Z,17.13
2023-01-29T06:41:25.452Z,19.57
2023-01-29T06:43:52.984Z,28.10
2023-01-29T06:46:20.102Z,22.13
2023-01-29T06:48:47.191Z,31.03
2023-01-29T06:51:14.273Z,42.67
2023-01-29T06:53:45.830Z,65.80
2023-01-29T06:56:13.388Z,24.47
2023-01-29T06:58:40.426Z,22.03
2023-01-29T07:01:17.531Z,19.73
2023-01-29T07:03:56.125Z,27.20
2023-01-29T07:06:30.463Z,26.17
2023-01-29T07:08:57.554Z,19.63
2023-01-29T07:11:24.827Z,21.87
2023-01-29T07:13:51.796Z,21.10
2023-01-29T07:16:19.330Z,36.37
2023-01-29T07:18:53.548Z,23.30
2023-01-29T07:21:20.570Z,19.77
2023-01-29T07:23:47.639Z,22.43
2023-01-29T07:26:14.594Z,22.10
2023-01-29T07:28:42.036Z,24.40
2023-01-29T07:31:12.722Z,25.90
2023-01-29T07:33:39.819Z,22.80
2023-01-29T07:36:11.995Z,29.23
2023-01-29T07:38:38.976Z,25.87
2023-01-29T07:41:06.215Z,23.50
2023-01-29T07:43:33.349Z,61.80
2023-01-29T07:46:04.821Z,37.00
2023-01-29T07:48:32.007Z,24.57
2023-01-29T07:50:59.155Z,24.83
2023-01-29T07:53:27.478Z,36.70
2023-01-29T07:55:54.440Z,28.27
2023-01-29T07:58:21.409Z,20.60
2023-01-29T08:00:48.410Z,23.37
2023-01-29T08:03:20.111Z,20.60
2023-01-29T08:05:47.848Z,25.17
2023-01-29T08:08:15.400Z,24.53
2023-01-29T08:10:43.051Z,27.27
2023-01-29T08:13:10.142Z,28.60
2023-01-29T08:15:39.199Z,31.23
2023-01-29T08:18:07.009Z,23.97
2023-01-29T08:20:34.008Z,21.03
2023-01-29T08:23:12.938Z,30.97
2023-01-29T08:25:40.012Z,26.27
2023-01-29T08:28:07.278Z,25.10
2023-01-29T08:30:35.228Z,27.53
2023-01-29T08:33:04.493Z,30.90
2023-01-29T08:35:31.977Z,27.93
2023-01-29T08:38:03.558Z,23.63
2023-01-29T08:40:34.168Z,25.30
2023-01-29T08:43:09.127Z,26.10
2023-01-29T08:45:42.354Z,23.37
2023-01-29T08:48:10.188Z,32.33
2023-01-29T08:50:37.879Z,31.43
2023-01-29T08:53:08.241Z,30.80
2023-01-29T08:55:42.525Z,29.67
2023-01-29T08:58:11.810Z,27.43
2023-01-29T09:00:39.286Z,29.83
2023-01-29T09:03:07.989Z,28.73
2023-01-29T09:05:39.626Z,34.70
2023-01-29T09:08:08.087Z,24.83
2023-01-29T09:10:35.433Z,28.10
2023-01-29T09:13:02.651Z,23.20
2023-01-29T09:15:29.622Z,22.23
2023-01-29T09:17:56.704Z,44.57
2023-01-29T09:20:23.764Z,40.20
2023-01-29T09:22:53.653Z,22.70
2023-01-29T09:25:20.625Z,25.67
2023-01-29T09:27:47.591Z,24.33
2023-01-29T09:30:14.996Z,24.80
2023-01-29T09:32:57.518Z,20.27
2023-01-29T09:35:24.755Z,23.87
2023-01-29T09:37:52.657Z,19.13
2023-01-29T09:40:57.419Z,20.83
2023-01-29T09:43:44.014Z,22.07
2023-01-29T09:46:41.265Z,20.00
2023-01-29T09:49:32.435Z,23.57
2023-01-29T09:52:05.985Z,19.80
2023-01-29T09:55:00.031Z,19.00
2023-01-29T09:57:42.822Z,21.07
2023-01-29T10:00:36.592Z,23.23
2023-01-29T10:03:54.665Z,22.57
2023-01-29T10:06:46.456Z,18.00
2023-01-29T10:09:59.829Z,19.50
2023-01-29T10:12:59.029Z,20.87
2023-01-29T10:15:57.821Z,19.37
2023-01-29T10:18:33.767Z,24.60
2023-01-29T10:21:19.615Z,24.33
2023-01-29T10:24:22.441Z,12.30
2023-01-29T10:26:52.406Z,18.17
2023-01-29T10:29:22.110Z,19.90
2023-01-29T10:32:05.964Z,18.33
2023-01-29T10:34:46.905Z,16.97
2023-01-29T10:37:34.540Z,23.83
2023-01-29T10:40:02.266Z,22.60
2023-01-29T10:43:04.850Z,20.80
2023-01-29T10:45:48.816Z,13.13
2023-01-29T10:48:47.527Z,17.00
2023-01-29T10:51:42.033Z,14.07
2023-01-29T10:54:42.483Z,15.50
2023-01-29T10:57:49.044Z,11.73
2023-01-29T11:00:38.755Z,18.43
2023-01-29T11:03:27.823Z,14.20
2023-01-29T11:06:41.338Z,14.43
2023-01-29T11:09:11.259Z,18.73
2023-01-29T11:11:59.516Z,16.17
2023-01-29T11:14:44.640Z,13.93
2023-01-29T11:17:22.014Z,13.50
2023-01-29T11:19:51.762Z,12.30
2023-01-29T11:22:25.602Z,11.13
2023-01-29T11:25:11.107Z,11.10
2023-01-29T11:27:50.190Z,14.53
2023-01-29T11:30:36.290Z,10.63
2023-01-29T11:33:20.727Z,14.27
2023-01-29T11:35:47.906Z,11.90
2023-01-29T11:38:23.331Z,11.53
2023-01-29T11:40:50.747Z,19.70
2023-01-29T11:43:26.431Z,11.17
2023-01-29T11:45:57.755Z,11.30
2023-01-29T11:48:51.377Z,11.60
2023-01-29T11:51:27.649Z,16.27
2023-01-29T11:53:59.066Z,10.83
2023-01-29T11:56:39.382Z,11.30
2023-01-29T11:59:08.359Z,14.70
2023-01-29T12:01:39.304Z,11.40
2023-01-29T12:04:39.219Z,14.70
2023-01-29T12:07:14.898Z,12.80
2023-01-29T12:09:42.334Z,10.43
2023-01-29T12:12:40.844Z,13.43
2023-01-29T12:15:25.049Z,10.20
2023-01-29T12:18:03.849Z,16.20
2023-01-29T12:20:46.897Z,12.70
2023-01-29T12:23:49.116Z,10.00
2023-01-29T12:26:26.070Z,10.50
2023-01-29T12:29:21.975Z,33.60
2023-01-29T12:32:07.032Z,11.23
2023-01-29T12:34:42.824Z,12.73
2023-01-29T12:37:43.136Z,12.93
2023-01-29T12:40:19.207Z,13.97
2023-01-29T12:42:52.204Z,8.57
2023-01-29T12:45:24.020Z,10.57
2023-01-29T12:48:02.236Z,11.57
2023-01-29T12:50:33.486Z,10.63
2023-01-29T12:53:18.711Z,10.87
2023-01-29T12:55:55.328Z,13.70
2023-01-29T12:58:28.711Z,11.73
2023-01-29T13:01:03.695Z,11.17
2023-01-29T13:03:48.169Z,12.90
2023-01-29T13:06:26.703Z,13.60
2023-01-29T13:08:59.395Z,11.30
2023-01-29T13:11:38.255Z,13.03
2023-01-29T13:14:50.534Z,12.13
2023-01-29T13:17:36.337Z,11.27
2023-01-29T13:20:30.336Z,13.07
2023-01-29T13:23:06.522Z,13.23
2023-01-29T13:25:33.552Z,13.20
2023-01-29T13:28:00.994Z,9.90
2023-01-29T13:30:31.142Z,17.50
2023-01-29T13:33:09.862Z,11.10
2023-01-29T13:35:43.034Z,18.93
2023-01-29T13:38:30.546Z,10.50
2023-01-29T13:41:03.695Z,15.37
2023-01-29T13:43:39.945Z,11.97
2023-01-29T13:46:15.127Z,13.07
2023-01-29T13:48:58.294Z,14.60
2023-01-29T13:51:35.693Z,12.10
2023-01-29T13:54:18.656Z,15.50
2023-01-29T13:57:03.314Z,15.63
2023-01-29T13:59:53.265Z,13.30
2023-01-29T14:02:28.105Z,12.93
2023-01-29T14:05:32.204Z,15.07
2023-01-29T14:08:34.393Z,13.93
2023-01-29T14:11:21.885Z,16.43
2023-01-29T14:13:52.299Z,16.60
2023-01-29T14:16:19.169Z,19.00
2023-01-29T14:19:01.411Z,15.90
2023-01-29T14:21:34.404Z,16.37
2023-01-29T14:24:22.196Z,21.00
2023-01-29T14:26:54.659Z,20.20
2023-01-29T14:29:39.433Z,19.40
2023-01-29T14:32:06.295Z,19.97
2023-01-29T14:34:45.293Z,16.00
2023-01-29T14:37:25.933Z,29.00
2023-01-29T14:39:59.371Z,18.57
2023-01-29T14:42:58.710Z,17.90
2023-01-29T14:45:33.569Z,20.60
2023-01-29T14:48:10.735Z,20.00
2023-01-29T14:50:41.129Z,24.23
2023-01-29T14:53:40.222Z,16.73
2023-01-29T14:56:20.957Z,19.50
2023-01-29T14:59:19.743Z,20.23
2023-01-29T15:01:58.913Z,22.30
2023-01-29T15:04:47.998Z,16.63
2023-01-29T15:07:36.166Z,28.90
2023-01-29T15:10:24.100Z,20.50
2023-01-29T15:13:04.686Z,16.77
2023-01-29T15:15:38.363Z,15.53
2023-01-29T15:18:16.279Z,24.00
2023-01-29T15:20:46.600Z,18.10
2023-01-29T15:23:34.527Z,16.13
2023-01-29T15:26:06.494Z,20.37
2023-01-29T15:28:35.571Z,16.50
2023-01-29T15:31:07.993Z,15.43
2023-01-29T15:33:38.688Z,17.03
2023-01-29T15:36:08.233Z,15.73
2023-01-29T15:38:36.059Z,17.23
2023-01-29T15:41:23.756Z,21.03
2023-01-29T15:43:57.916Z,21.30
2023-01-29T15:46:39.620Z,19.30
2023-01-29T15:49:11.853Z,15.10
2023-01-29T15:51:39.636Z,18.17
2023-01-29T15:54:15.634Z,14.30
2023-01-29T15:56:51.377Z,15.80
2023-01-29T15:59:23.239Z,15.03
2023-01-29T16:01:53.568Z,18.03
2023-01-29T16:04:31.799Z,18.57
2023-01-29T16:07:00.844Z,17.80
2023-01-29T16:09:30.607Z,16.13
2023-01-29T16:11:59.278Z,17.10
2023-01-29T16:14:28.052Z,17.93
2023-01-29T16:16:55.250Z,16.00
2023-01-29T16:19:27.426Z,16.93
2023-01-29T16:22:04.383Z,27.67
2023-01-29T16:24:39.177Z,18.40
2023-01-29T16:27:13.777Z,18.37
2023-01-29T16:29:43.441Z,13.83
2023-01-29T16:32:13.873Z,32.43
2023-01-29T16:35:04.423Z,20.13
2023-01-29T16:37:36.438Z,17.93
2023-01-29T16:40:35.516Z,15.40
2023-01-29T16:43:17.499Z,17.00
2023-01-29T16:46:15.958Z,17.30
2023-01-29T16:48:42.986Z,16.40
2023-01-29T16:51:27.088Z,14.60
2023-01-29T16:54:23.337Z,20.30
2023-01-29T16:56:59.842Z,20.40
2023-01-29T16:59:36.434Z,15.40
2023-01-29T17:02:04.652Z,23.03
2023-01-29T17:04:35.560Z,19.33
2023-01-29T17:07:03.008Z,27.50
2023-01-29T17:09:35.345Z,16.67
2023-01-29T17:12:08.641Z,16.87
2023-01-29T17:14:42.022Z,16.73
2023-01-29T17:17:16.364Z,16.93
2023-01-29T17:19:45.540Z,16.10
2023-01-29T17:22:15.595Z,17.03
2023-01-29T17:24:43.004Z,20.97
2023-01-29T17:27:22.542Z,19.17
2023-01-29T17:29:53.516Z,18.83
2023-01-29T17:32:20.686Z,21.57
2023-01-29T17:34:47.664Z,18.27
2023-01-29T17:37:15.943Z,16.30
2023-01-29T17:39:50.436Z,20.03
2023-01-29T17:42:20.164Z,18.83
2023-01-29T17:44:47.151Z,22.20
2023-01-29T17:47:18.022Z,16.70
2023-01-29T17:49:45.121Z,17.73
2023-01-29T17:52:14.588Z,17.90
2023-01-29T17:54:41.552Z,15.37
2023-01-29T17:57:14.065Z,15.37
2023-01-29T17:59:41.020Z,20.93
2023-01-29T18:02:08.753Z,20.27
2023-01-29T18:04:55.823Z,18.23
2023-01-29T18:07:22.824Z,15.17
2023-01-29T18:09:49.792Z,15.07
2023-01-29T18:12:16.764Z,16.40
2023-01-29T18:14:43.722Z,16.10
2023-01-29T18:17:10.687Z,26.93
2023-01-29T18:19:37.640Z,14.07
2023-01-29T18:22:04.701Z,17.03
2023-01-29T18:24:31.724Z,24.07
2023-01-29T18:26:58.663Z,16.10
2023-01-29T18:29:30.029Z,25.27
2023-01-29T18:31:57.358Z,18.77
2023-01-29T18:34:26.672Z,16.33
2023-01-29T18:36:53.658Z,27.70
2023-01-29T18:39:23.004Z,15.83
2023-01-29T18:41:49.941Z,14.77
2023-01-29T18:44:17.113Z,12.93
2023-01-29T18:46:44.095Z,11.37
2023-01-29T18:49:11.076Z,13.40
2023-01-29T18:51:38.153Z,12.20
2023-01-29T18:54:05.274Z,14.53
2023-01-29T18:56:32.223Z,12.87
2023-01-29T18:58:59.214Z,17.13
2023-01-29T19:01:28.836Z,17.83
2023-01-29T19:03:58.191Z,14.20
2023-01-29T19:06:27.645Z,14.60
2023-01-29T19:08:54.613Z,18.80
2023-01-29T19:11:21.547Z,13.00
2023-01-29T19:13:53.313Z,13.93
2023-01-29T19:16:20.433Z,11.07
2023-01-29T19:18:50.434Z,11.53
2023-01-29T19:21:18.228Z,16.77
2023-01-29T19:23:45.257Z,14.03
2023-01-29T19:26:13.436Z,14.03
2023-01-29T19:28:42.827Z,8.50
2023-01-29T19:31:12.464Z,9.50
2023-01-29T19:33:42.065Z,11.90
2023-01-29T19:36:09.543Z,12.13
2023-01-29T19:38:38.716Z,10.50
2023-01-29T19:41:06.436Z,11.37
2023-01-29T19:43:33.530Z,12.20
2023-01-29T19:46:02.134Z,11.17
2023-01-29T19:48:34.699Z,8.97
2023-01-29T19:51:05.228Z,9.77
2023-01-29T19:53:32.221Z,8.73
2023-01-29T19:56:05.997Z,10.13
2023-01-29T19:58:34.259Z,8.73
2023-01-29T20:01:12.569Z,8.77
2023-01-29T20:03:47.932Z,9.03
2023-01-29T20:06:20.447Z,9.43
2023-01-29T20:08:47.480Z,8.10
2023-01-29T20:11:16.351Z,19.73
2023-01-29T20:13:47.078Z,8.43
2023-01-29T20:16:14.311Z,7.90
2023-01-29T20:18:41.317Z,7.73
2023-01-29T20:21:12.269Z,7.57
2023-01-29T20:23:40.080Z,8.57
2023-01-29T20:26:15.801Z,7.27
2023-01-29T20:28:45.641Z,7.40
2023-01-29T20:31:12.794Z,9.07
2023-01-29T20:33:40.412Z,8.57
2023-01-29T20:36:12.373Z,8.63
2023-01-29T20:38:41.806Z,9.03
2023-01-29T20:41:16.382Z,10.87
2023-01-29T20:43:44.925Z,8.83
2023-01-29T20:46:14.766Z,9.13
2023-01-29T20:48:42.277Z,8.10
2023-01-29T20:51:16.230Z,7.87
2023-01-29T20:53:46.367Z,7.97
2023-01-29T20:56:15.424Z,8.67
2023-01-29T20:58:44.340Z,10.00
2023-01-29T21:01:15.699Z,7.37
2023-01-29T21:03:43.167Z,8.27
2023-01-29T21:06:11.664Z,11.80
2023-01-29T21:08:39.952Z,10.03
2023-01-29T21:11:08.828Z,7.53
2023-01-29T21:13:36.537Z,10.03
2023-01-29T21:16:04.284Z,7.23
2023-01-29T21:18:32.269Z,7.00
2023-01-29T21:20:59.372Z,7.47
2023-01-29T21:23:26.335Z,6.93
2023-01-29T21:25:53.283Z,7.53
2023-01-29T21:28:20.360Z,9.10
2023-01-29T21:30:47.969Z,8.47
2023-01-29T21:33:14.933Z,7.07
2023-01-29T21:35:41.957Z,7.30
2023-01-29T21:38:09.294Z,8.00
2023-01-29T21:40:36.407Z,7.33
2023-01-29T21:43:13.305Z,6.90
2023-01-29T21:45:40.923Z,7.93
2023-01-29T21:48:09.890Z,7.90
2023-01-29T21:50:37.825Z,8.00
2023-01-29T21:53:04.924Z,8.13
2023-01-29T21:55:32.563Z,11.13
2023-01-29T21:58:00.474Z,7.23
2023-01-29T22:00:28.146Z,7.90
2023-01-29T22:02:55.258Z,7.30
2023-01-29T22:05:22.243Z,6.63
2023-01-29T22:07:51.569Z,9.10
2023-01-29T22:10:20.131Z,8.40
2023-01-29T22:12:48.325Z,7.90
2023-01-29T22:15:18.293Z,8.37
2023-01-29T22:17:45.227Z,8.47
2023-01-29T22:20:14.768Z,8.63
2023-01-29T22:22:42.087Z,9.03
2023-01-29T22:25:10.309Z,7.67
2023-01-29T22:27:37.614Z,9.60
2023-01-29T22:30:06.307Z,8.20
2023-01-29T22:32:33.827Z,8.77
2023-01-29T22:35:00.859Z,8.03
2023-01-29T22:37:27.813Z,9.60
2023-01-29T22:39:54.758Z,8.77
2023-01-29T22:42:21.773Z,9.73
2023-01-29T22:44:48.836Z,9.17
2023-01-29T22:47:16.108Z,8.27
2023-01-29T22:49:45.596Z,8.30
2023-01-29T22:52:12.715Z,7.63
2023-01-29T22:54:44.657Z,8.30
2023-01-29T22:57:14.121Z,8.73
2023-01-29T22:59:41.690Z,11.20
2023-01-29T23:02:09.403Z,8.73
2023-01-29T23:04:37.020Z,10.83
2023-01-29T23:07:05.436Z,7.83
2023-01-29T23:09:32.444Z,7.90
2023-01-29T23:11:59.426Z,7.63
2023-01-29T23:14:26.400Z,9.30
2023-01-29T23:16:53.403Z,7.87
2023-01-29T23:19:20.514Z,7.80
2023-01-29T23:21:47.475Z,7.53
2023-01-29T23:24:14.789Z,7.90
2023-01-29T23:27:00.415Z,10.30
2023-01-29T23:29:27.411Z,8.50
2023-01-29T23:31:54.576Z,8.67
2023-01-29T23:34:22.363Z,7.60
2023-01-29T23:36:49.457Z,9.03
2023-01-29T23:39:16.655Z,8.27
2023-01-29T23:41:43.959Z,8.03
2023-01-29T23:44:10.903Z,9.20
2023-01-29T23:46:37.898Z,7.67
2023-01-29T23:49:07.510Z,8.97
2023-01-29T23:51:34.525Z,8.63
2023-01-29T23:54:01.523Z,9.77
2023-01-29T23:56:28.685Z,10.70
2023-01-29T23:58:57.508Z,7.93
